sensor_id;sensor_type;location;lat;lon;timestamp;temperature;humidity
38428;DHT22;24211;49.980;19.776;2022-07-05T00:00:16;27.20;76.20
38428;DHT22;24211;49.980;19.776;2022-07-05T00:03:04;27.20;76.40
38428;DHT22;24211;49.980;19.776;2022-07-05T00:05:31;27.10;77.20
38428;DHT22;24211;49.980;19.776;2022-07-05T00:07:59;27.10;76.70
38428;DHT22;24211;49.980;19.776;2022-07-05T00:10:26;27.00;76.70
38428;DHT22;24211;49.980;19.776;2022-07-05T00:12:53;27.00;76.70
38428;DHT22;24211;49.980;19.776;2022-07-05T00:15:20;27.00;76.90
38428;DHT22;24211;49.980;19.776;2022-07-05T00:17:48;26.90;76.90
38428;DHT22;24211;49.980;19.776;2022-07-05T00:20:16;26.90;77.00
38428;DHT22;24211;49.980;19.776;2022-07-05T00:22:43;26.90;77.20
38428;DHT22;24211;49.980;19.776;2022-07-05T00:25:11;26.80;77.60
38428;DHT22;24211;49.980;19.776;2022-07-05T00:27:38;26.70;78.20
38428;DHT22;24211;49.980;19.776;2022-07-05T00:30:06;26.60;78.90
38428;DHT22;24211;49.980;19.776;2022-07-05T00:32:35;26.50;79.50
38428;DHT22;24211;49.980;19.776;2022-07-05T00:35:04;26.40;80.30
38428;DHT22;24211;49.980;19.776;2022-07-05T00:37:33;26.40;81.30
38428;DHT22;24211;49.980;19.776;2022-07-05T00:40:01;26.30;81.60
38428;DHT22;24211;49.980;19.776;2022-07-05T00:42:29;26.20;82.10
38428;DHT22;24211;49.980;19.776;2022-07-05T00:44:56;26.20;82.30
38428;DHT22;24211;49.980;19.776;2022-07-05T00:47:24;26.20;82.20
38428;DHT22;24211;49.980;19.776;2022-07-05T00:49:51;26.20;82.00
38428;DHT22;24211;49.980;19.776;2022-07-05T00:52:18;26.20;81.50
38428;DHT22;24211;49.980;19.776;2022-07-05T00:54:47;26.20;81.20
38428;DHT22;24211;49.980;19.776;2022-07-05T00:57:15;26.30;81.10
38428;DHT22;24211;49.980;19.776;2022-07-05T00:59:43;26.20;80.80
38428;DHT22;24211;49.980;19.776;2022-07-05T01:02:10;26.20;80.50
38428;DHT22;24211;49.980;19.776;2022-07-05T01:04:46;26.20;80.40
38428;DHT22;24211;49.980;19.776;2022-07-05T01:07:20;26.20;80.20
38428;DHT22;24211;49.980;19.776;2022-07-05T01:09:49;26.20;80.20
38428;DHT22;24211;49.980;19.776;2022-07-05T01:12:17;26.10;80.30
38428;DHT22;24211;49.980;19.776;2022-07-05T01:14:45;26.10;81.10
38428;DHT22;24211;49.980;19.776;2022-07-05T01:17:14;26.10;80.50
38428;DHT22;24211;49.980;19.776;2022-07-05T01:19:42;26.00;80.70
38428;DHT22;24211;49.980;19.776;2022-07-05T01:22:17;26.00;79.90
38428;DHT22;24211;49.980;19.776;2022-07-05T01:24:47;26.10;79.80
38428;DHT22;24211;49.980;19.776;2022-07-05T01:27:17;26.00;79.90
38428;DHT22;24211;49.980;19.776;2022-07-05T01:29:45;26.00;79.80
38428;DHT22;24211;49.980;19.776;2022-07-05T01:32:13;26.00;79.60
38428;DHT22;24211;49.980;19.776;2022-07-05T01:34:40;26.00;79.60
38428;DHT22;24211;49.980;19.776;2022-07-05T01:37:10;26.00;79.60
38428;DHT22;24211;49.980;19.776;2022-07-05T01:39:38;25.90;79.50
38428;DHT22;24211;49.980;19.776;2022-07-05T01:42:06;25.80;79.60
38428;DHT22;24211;49.980;19.776;2022-07-05T01:44:34;25.80;79.50
38428;DHT22;24211;49.980;19.776;2022-07-05T01:47:06;25.90;79.50
38428;DHT22;24211;49.980;19.776;2022-07-05T01:49:36;25.80;79.50
38428;DHT22;24211;49.980;19.776;2022-07-05T01:52:10;25.80;79.50
38428;DHT22;24211;49.980;19.776;2022-07-05T01:54:40;25.80;79.50
38428;DHT22;24211;49.980;19.776;2022-07-05T01:57:09;25.80;79.50
38428;DHT22;24211;49.980;19.776;2022-07-05T01:59:37;25.80;79.50
38428;DHT22;24211;49.980;19.776;2022-07-05T02:02:06;25.70;79.90
38428;DHT22;24211;49.980;19.776;2022-07-05T02:04:36;25.70;79.90
38428;DHT22;24211;49.980;19.776;2022-07-05T02:07:08;25.70;79.80
38428;DHT22;24211;49.980;19.776;2022-07-05T02:09:38;25.70;79.70
38428;DHT22;24211;49.980;19.776;2022-07-05T02:12:05;25.60;79.70
38428;DHT22;24211;49.980;19.776;2022-07-05T02:14:33;25.60;79.70
38428;DHT22;24211;49.980;19.776;2022-07-05T02:17:04;25.60;79.80
38428;DHT22;24211;49.980;19.776;2022-07-05T02:19:32;25.60;79.80
38428;DHT22;24211;49.980;19.776;2022-07-05T02:22:02;25.60;79.80
38428;DHT22;24211;49.980;19.776;2022-07-05T02:24:30;25.50;79.80
38428;DHT22;24211;49.980;19.776;2022-07-05T02:27:13;25.50;79.80
38428;DHT22;24211;49.980;19.776;2022-07-05T02:29:41;25.50;79.90
38428;DHT22;24211;49.980;19.776;2022-07-05T02:32:10;25.40;79.90
38428;DHT22;24211;49.980;19.776;2022-07-05T02:34:37;25.40;80.30
38428;DHT22;24211;49.980;19.776;2022-07-05T02:37:05;25.40;80.20
38428;DHT22;24211;49.980;19.776;2022-07-05T02:39:33;25.40;80.20
38428;DHT22;24211;49.980;19.776;2022-07-05T02:42:02;25.40;80.20
38428;DHT22;24211;49.980;19.776;2022-07-05T02:44:31;25.40;80.20
38428;DHT22;24211;49.980;19.776;2022-07-05T02:46:58;25.30;80.20
38428;DHT22;24211;49.980;19.776;2022-07-05T02:49:27;25.30;80.20
38428;DHT22;24211;49.980;19.776;2022-07-05T02:51:56;25.30;80.20
38428;DHT22;24211;49.980;19.776;2022-07-05T02:54:24;25.30;80.10
38428;DHT22;24211;49.980;19.776;2022-07-05T02:56:52;25.30;80.20
38428;DHT22;24211;49.980;19.776;2022-07-05T02:59:20;25.30;80.40
38428;DHT22;24211;49.980;19.776;2022-07-05T03:01:48;25.20;80.30
38428;DHT22;24211;49.980;19.776;2022-07-05T03:04:17;25.20;80.40
38428;DHT22;24211;49.980;19.776;2022-07-05T03:06:52;25.20;80.60
38428;DHT22;24211;49.980;19.776;2022-07-05T03:09:23;25.20;80.70
38428;DHT22;24211;49.980;19.776;2022-07-05T03:11:51;25.10;81.70
38428;DHT22;24211;49.980;19.776;2022-07-05T03:14:19;25.10;83.10
38428;DHT22;24211;49.980;19.776;2022-07-05T03:16:48;25.10;82.40
38428;DHT22;24211;49.980;19.776;2022-07-05T03:19:16;25.00;81.90
38428;DHT22;24211;49.980;19.776;2022-07-05T03:21:44;25.00;82.30
38428;DHT22;24211;49.980;19.776;2022-07-05T03:24:12;25.00;82.30
38428;DHT22;24211;49.980;19.776;2022-07-05T03:26:39;25.00;82.20
38428;DHT22;24211;49.980;19.776;2022-07-05T03:29:07;25.00;82.10
38428;DHT22;24211;49.980;19.776;2022-07-05T03:31:36;24.90;81.90
38428;DHT22;24211;49.980;19.776;2022-07-05T03:34:05;24.90;82.20
38428;DHT22;24211;49.980;19.776;2022-07-05T03:36:33;24.90;82.10
38428;DHT22;24211;49.980;19.776;2022-07-05T03:39:04;24.80;83.10
38428;DHT22;24211;49.980;19.776;2022-07-05T03:41:33;24.80;83.10
38428;DHT22;24211;49.980;19.776;2022-07-05T03:44:02;24.80;83.10
38428;DHT22;24211;49.980;19.776;2022-07-05T03:46:31;24.80;83.20
38428;DHT22;24211;49.980;19.776;2022-07-05T03:48:58;24.80;83.10
38428;DHT22;24211;49.980;19.776;2022-07-05T03:51:26;24.80;83.10
38428;DHT22;24211;49.980;19.776;2022-07-05T03:53:55;24.80;83.00
38428;DHT22;24211;49.980;19.776;2022-07-05T03:56:23;24.70;83.10
38428;DHT22;24211;49.980;19.776;2022-07-05T03:58:55;24.70;83.30
38428;DHT22;24211;49.980;19.776;2022-07-05T04:01:23;24.60;83.50
38428;DHT22;24211;49.980;19.776;2022-07-05T04:03:52;24.60;84.30
38428;DHT22;24211;49.980;19.776;2022-07-05T04:06:20;24.70;83.60
38428;DHT22;24211;49.980;19.776;2022-07-05T04:08:48;24.60;83.50
38428;DHT22;24211;49.980;19.776;2022-07-05T04:11:16;24.60;83.60
38428;DHT22;24211;49.980;19.776;2022-07-05T04:13:48;24.60;84.00
38428;DHT22;24211;49.980;19.776;2022-07-05T04:16:15;24.60;84.20
38428;DHT22;24211;49.980;19.776;2022-07-05T04:18:43;24.50;84.00
38428;DHT22;24211;49.980;19.776;2022-07-05T04:21:10;24.50;84.30
38428;DHT22;24211;49.980;19.776;2022-07-05T04:23:38;24.60;84.90
38428;DHT22;24211;49.980;19.776;2022-07-05T04:26:05;24.50;84.90
38428;DHT22;24211;49.980;19.776;2022-07-05T04:28:39;24.50;85.00
38428;DHT22;24211;49.980;19.776;2022-07-05T04:31:10;24.50;85.20
38428;DHT22;24211;49.980;19.776;2022-07-05T04:33:42;24.40;85.60
38428;DHT22;24211;49.980;19.776;2022-07-05T04:36:13;24.40;87.30
38428;DHT22;24211;49.980;19.776;2022-07-05T04:38:40;24.30;88.70
38428;DHT22;24211;49.980;19.776;2022-07-05T04:41:08;23.70;94.20
38428;DHT22;24211;49.980;19.776;2022-07-05T04:43:37;23.80;92.00
38428;DHT22;24211;49.980;19.776;2022-07-05T04:46:07;23.90;93.00
38428;DHT22;24211;49.980;19.776;2022-07-05T04:48:35;24.00;91.50
38428;DHT22;24211;49.980;19.776;2022-07-05T04:51:02;24.20;91.30
38428;DHT22;24211;49.980;19.776;2022-07-05T04:53:32;23.80;93.80
38428;DHT22;24211;49.980;19.776;2022-07-05T04:55:59;23.70;92.80
38428;DHT22;24211;49.980;19.776;2022-07-05T04:58:27;23.40;94.10
38428;DHT22;24211;49.980;19.776;2022-07-05T05:00:55;23.00;95.40
38428;DHT22;24211;49.980;19.776;2022-07-05T05:03:22;22.70;96.40
38428;DHT22;24211;49.980;19.776;2022-07-05T05:05:49;22.40;97.10
38428;DHT22;24211;49.980;19.776;2022-07-05T05:08:17;22.40;98.20
38428;DHT22;24211;49.980;19.776;2022-07-05T05:10:44;22.30;99.40
38428;DHT22;24211;49.980;19.776;2022-07-05T05:13:11;22.30;99.60
38428;DHT22;24211;49.980;19.776;2022-07-05T05:15:39;22.10;99.90
38428;DHT22;24211;49.980;19.776;2022-07-05T05:18:06;22.20;99.90
38428;DHT22;24211;49.980;19.776;2022-07-05T05:20:33;22.10;99.90
38428;DHT22;24211;49.980;19.776;2022-07-05T05:23:07;22.00;99.90
38428;DHT22;24211;49.980;19.776;2022-07-05T05:25:34;22.00;99.90
38428;DHT22;24211;49.980;19.776;2022-07-05T05:28:02;21.80;99.90
38428;DHT22;24211;49.980;19.776;2022-07-05T05:30:30;21.70;99.90
38428;DHT22;24211;49.980;19.776;2022-07-05T05:32:58;21.80;99.90
38428;DHT22;24211;49.980;19.776;2022-07-05T05:35:25;21.70;99.90
38428;DHT22;24211;49.980;19.776;2022-07-05T05:37:54;22.00;99.90
38428;DHT22;24211;49.980;19.776;2022-07-05T05:40:23;22.40;99.90
38428;DHT22;24211;49.980;19.776;2022-07-05T05:42:53;22.50;99.90
38428;DHT22;24211;49.980;19.776;2022-07-05T05:45:21;22.60;99.90
38428;DHT22;24211;49.980;19.776;2022-07-05T05:47:54;23.10;99.90
38428;DHT22;24211;49.980;19.776;2022-07-05T05:50:29;23.50;99.20
38428;DHT22;24211;49.980;19.776;2022-07-05T05:52:57;23.60;98.60
38428;DHT22;24211;49.980;19.776;2022-07-05T05:55:27;23.70;98.20
38428;DHT22;24211;49.980;19.776;2022-07-05T05:57:55;23.80;97.80
38428;DHT22;24211;49.980;19.776;2022-07-05T06:00:24;23.80;97.60
38428;DHT22;24211;49.980;19.776;2022-07-05T06:02:53;23.80;97.50
38428;DHT22;24211;49.980;19.776;2022-07-05T06:05:20;23.90;97.40
38428;DHT22;24211;49.980;19.776;2022-07-05T06:07:49;23.80;97.30
38428;DHT22;24211;49.980;19.776;2022-07-05T06:10:24;23.90;97.30
38428;DHT22;24211;49.980;19.776;2022-07-05T06:12:54;23.80;97.30
38428;DHT22;24211;49.980;19.776;2022-07-05T06:15:24;23.80;97.30
38428;DHT22;24211;49.980;19.776;2022-07-05T06:17:52;23.70;98.00
38428;DHT22;24211;49.980;19.776;2022-07-05T06:20:21;23.60;98.70
38428;DHT22;24211;49.980;19.776;2022-07-05T06:22:51;23.50;99.20
38428;DHT22;24211;49.980;19.776;2022-07-05T06:25:19;23.40;99.70
38428;DHT22;24211;49.980;19.776;2022-07-05T06:30:24;23.30;99.90
38428;DHT22;24211;49.980;19.776;2022-07-05T06:32:54;23.30;99.90
38428;DHT22;24211;49.980;19.776;2022-07-05T06:35:22;23.20;99.90
38428;DHT22;24211;49.980;19.776;2022-07-05T06:37:53;23.20;99.90
38428;DHT22;24211;49.980;19.776;2022-07-05T06:40:34;23.20;99.90
38428;DHT22;24211;49.980;19.776;2022-07-05T06:43:05;23.10;99.90
38428;DHT22;24211;49.980;19.776;2022-07-05T06:45:40;23.10;99.90
38428;DHT22;24211;49.980;19.776;2022-07-05T06:48:10;23.10;99.90
38428;DHT22;24211;49.980;19.776;2022-07-05T06:50:40;23.10;99.90
38428;DHT22;24211;49.980;19.776;2022-07-05T06:53:10;23.20;99.90
38428;DHT22;24211;49.980;19.776;2022-07-05T06:55:42;23.10;99.90
38428;DHT22;24211;49.980;19.776;2022-07-05T06:58:22;23.10;99.90
38428;DHT22;24211;49.980;19.776;2022-07-05T07:00:50;23.00;99.90
38428;DHT22;24211;49.980;19.776;2022-07-05T07:03:38;23.10;99.90
38428;DHT22;24211;49.980;19.776;2022-07-05T07:06:25;23.00;99.90
38428;DHT22;24211;49.980;19.776;2022-07-05T07:08:53;23.00;99.90
38428;DHT22;24211;49.980;19.776;2022-07-05T07:11:38;23.00;99.90
38428;DHT22;24211;49.980;19.776;2022-07-05T07:14:05;23.00;99.90
38428;DHT22;24211;49.980;19.776;2022-07-05T07:16:32;23.10;99.90
38428;DHT22;24211;49.980;19.776;2022-07-05T07:19:00;23.10;99.90
38428;DHT22;24211;49.980;19.776;2022-07-05T07:21:43;23.10;99.90
38428;DHT22;24211;49.980;19.776;2022-07-05T07:24:11;23.10;99.90
38428;DHT22;24211;49.980;19.776;2022-07-05T07:26:38;23.10;99.90
38428;DHT22;24211;49.980;19.776;2022-07-05T07:29:25;23.10;99.90
38428;DHT22;24211;49.980;19.776;2022-07-05T07:31:52;23.10;99.90
38428;DHT22;24211;49.980;19.776;2022-07-05T07:34:19;23.20;99.90
38428;DHT22;24211;49.980;19.776;2022-07-05T07:36:47;23.10;99.90
38428;DHT22;24211;49.980;19.776;2022-07-05T07:39:15;23.00;99.90
38428;DHT22;24211;49.980;19.776;2022-07-05T07:41:42;23.00;99.90
38428;DHT22;24211;49.980;19.776;2022-07-05T07:44:10;23.10;99.90
38428;DHT22;24211;49.980;19.776;2022-07-05T07:46:37;23.10;99.90
38428;DHT22;24211;49.980;19.776;2022-07-05T07:49:10;23.20;99.90
38428;DHT22;24211;49.980;19.776;2022-07-05T07:51:40;23.20;99.90
38428;DHT22;24211;49.980;19.776;2022-07-05T07:54:08;23.20;99.90
38428;DHT22;24211;49.980;19.776;2022-07-05T07:56:39;23.20;99.90
38428;DHT22;24211;49.980;19.776;2022-07-05T07:59:06;23.20;99.90
38428;DHT22;24211;49.980;19.776;2022-07-05T08:01:33;23.20;99.90
38428;DHT22;24211;49.980;19.776;2022-07-05T08:04:10;23.20;99.90
38428;DHT22;24211;49.980;19.776;2022-07-05T08:06:38;23.20;99.90
38428;DHT22;24211;49.980;19.776;2022-07-05T08:09:05;23.20;99.90
38428;DHT22;24211;49.980;19.776;2022-07-05T08:11:41;23.20;99.90
38428;DHT22;24211;49.980;19.776;2022-07-05T08:14:08;23.20;99.90
38428;DHT22;24211;49.980;19.776;2022-07-05T08:16:35;23.10;99.90
38428;DHT22;24211;49.980;19.776;2022-07-05T08:19:03;23.20;99.90
38428;DHT22;24211;49.980;19.776;2022-07-05T08:21:48;23.20;99.90
38428;DHT22;24211;49.980;19.776;2022-07-05T08:24:16;23.20;99.90
38428;DHT22;24211;49.980;19.776;2022-07-05T08:26:44;23.20;99.90
38428;DHT22;24211;49.980;19.776;2022-07-05T08:29:12;23.20;99.90
38428;DHT22;24211;49.980;19.776;2022-07-05T08:31:49;23.20;99.90
38428;DHT22;24211;49.980;19.776;2022-07-05T08:34:18;23.20;99.90
38428;DHT22;24211;49.980;19.776;2022-07-05T08:36:46;23.20;99.90
38428;DHT22;24211;49.980;19.776;2022-07-05T08:39:15;23.20;99.90
38428;DHT22;24211;49.980;19.776;2022-07-05T08:41:47;23.20;99.90
38428;DHT22;24211;49.980;19.776;2022-07-05T08:44:19;23.20;99.90
38428;DHT22;24211;49.980;19.776;2022-07-05T08:46:49;23.20;99.90
38428;DHT22;24211;49.980;19.776;2022-07-05T08:49:25;23.10;99.90
38428;DHT22;24211;49.980;19.776;2022-07-05T08:51:55;23.10;99.90
38428;DHT22;24211;49.980;19.776;2022-07-05T08:54:23;23.10;99.90
38428;DHT22;24211;49.980;19.776;2022-07-05T08:56:52;23.10;99.90
38428;DHT22;24211;49.980;19.776;2022-07-05T08:59:38;23.00;99.90
38428;DHT22;24211;49.980;19.776;2022-07-05T09:02:08;23.00;99.90
38428;DHT22;24211;49.980;19.776;2022-07-05T09:04:43;23.00;99.90
38428;DHT22;24211;49.980;19.776;2022-07-05T09:07:14;23.00;99.90
38428;DHT22;24211;49.980;19.776;2022-07-05T09:09:47;23.00;99.90
38428;DHT22;24211;49.980;19.776;2022-07-05T09:12:15;22.90;99.90
38428;DHT22;24211;49.980;19.776;2022-07-05T09:14:49;22.70;99.90
38428;DHT22;24211;49.980;19.776;2022-07-05T09:17:17;22.90;99.90
38428;DHT22;24211;49.980;19.776;2022-07-05T09:20:13;22.90;99.90
38428;DHT22;24211;49.980;19.776;2022-07-05T09:22:45;23.00;99.90
38428;DHT22;24211;49.980;19.776;2022-07-05T09:25:27;23.10;99.90
38428;DHT22;24211;49.980;19.776;2022-07-05T09:28:02;23.20;99.90
38428;DHT22;24211;49.980;19.776;2022-07-05T09:30:32;23.20;99.90
38428;DHT22;24211;49.980;19.776;2022-07-05T09:33:12;23.20;99.90
38428;DHT22;24211;49.980;19.776;2022-07-05T09:35:51;23.20;99.90
38428;DHT22;24211;49.980;19.776;2022-07-05T09:38:27;23.30;99.90
38428;DHT22;24211;49.980;19.776;2022-07-05T09:40:57;23.30;99.90
38428;DHT22;24211;49.980;19.776;2022-07-05T09:43:29;23.30;99.90
38428;DHT22;24211;49.980;19.776;2022-07-05T09:46:04;23.30;99.90
38428;DHT22;24211;49.980;19.776;2022-07-05T09:48:33;23.30;99.90
38428;DHT22;24211;49.980;19.776;2022-07-05T09:51:13;23.30;99.90
38428;DHT22;24211;49.980;19.776;2022-07-05T09:54:02;23.30;99.90
38428;DHT22;24211;49.980;19.776;2022-07-05T09:56:46;23.30;99.90
38428;DHT22;24211;49.980;19.776;2022-07-05T09:59:17;23.30;99.90
38428;DHT22;24211;49.980;19.776;2022-07-05T10:01:48;23.30;99.90
38428;DHT22;24211;49.980;19.776;2022-07-05T10:04:17;23.30;99.90
38428;DHT22;24211;49.980;19.776;2022-07-05T10:06:45;23.30;99.90
38428;DHT22;24211;49.980;19.776;2022-07-05T10:09:13;23.30;99.90
38428;DHT22;24211;49.980;19.776;2022-07-05T10:11:43;23.30;99.90
38428;DHT22;24211;49.980;19.776;2022-07-05T10:14:16;23.30;99.90
38428;DHT22;24211;49.980;19.776;2022-07-05T10:16:59;23.30;99.90
38428;DHT22;24211;49.980;19.776;2022-07-05T10:19:33;23.30;99.90
38428;DHT22;24211;49.980;19.776;2022-07-05T10:22:06;23.30;99.90
38428;DHT22;24211;49.980;19.776;2022-07-05T10:24:45;23.30;99.90
38428;DHT22;24211;49.980;19.776;2022-07-05T10:27:15;23.30;99.90
38428;DHT22;24211;49.980;19.776;2022-07-05T10:29:44;23.30;99.90
38428;DHT22;24211;49.980;19.776;2022-07-05T10:32:13;23.30;99.90
38428;DHT22;24211;49.980;19.776;2022-07-05T10:34:42;23.40;99.90
38428;DHT22;24211;49.980;19.776;2022-07-05T10:37:32;23.40;99.90
38428;DHT22;24211;49.980;19.776;2022-07-05T10:40:04;23.40;99.90
38428;DHT22;24211;49.980;19.776;2022-07-05T10:42:40;23.40;99.90
38428;DHT22;24211;49.980;19.776;2022-07-05T10:45:32;23.50;99.90
38428;DHT22;24211;49.980;19.776;2022-07-05T10:48:16;23.50;99.90
38428;DHT22;24211;49.980;19.776;2022-07-05T10:50:59;23.60;99.90
38428;DHT22;24211;49.980;19.776;2022-07-05T10:58:32;23.80;99.90
38428;DHT22;24211;49.980;19.776;2022-07-05T11:06:31;23.90;99.90
38428;DHT22;24211;49.980;19.776;2022-07-05T11:11:41;23.90;99.90
38428;DHT22;24211;49.980;19.776;2022-07-05T11:15:04;24.00;99.90
38428;DHT22;24211;49.980;19.776;2022-07-05T11:17:33;24.00;99.90
38428;DHT22;24211;49.980;19.776;2022-07-05T11:20:28;24.00;99.90
38428;DHT22;24211;49.980;19.776;2022-07-05T11:23:02;24.00;99.90
38428;DHT22;24211;49.980;19.776;2022-07-05T11:25:37;24.00;99.90
38428;DHT22;24211;49.980;19.776;2022-07-05T11:28:17;24.00;99.90
38428;DHT22;24211;49.980;19.776;2022-07-05T11:30:49;24.00;99.90
38428;DHT22;24211;49.980;19.776;2022-07-05T11:33:43;24.00;99.90
38428;DHT22;24211;49.980;19.776;2022-07-05T11:36:25;24.00;99.90
38428;DHT22;24211;49.980;19.776;2022-07-05T11:39:09;24.00;99.90
38428;DHT22;24211;49.980;19.776;2022-07-05T11:41:48;24.00;99.90
38428;DHT22;24211;49.980;19.776;2022-07-05T11:44:16;24.00;99.90
38428;DHT22;24211;49.980;19.776;2022-07-05T11:46:44;24.00;99.90
38428;DHT22;24211;49.980;19.776;2022-07-05T11:49:20;23.90;99.90
38428;DHT22;24211;49.980;19.776;2022-07-05T11:52:02;23.80;99.90
38428;DHT22;24211;49.980;19.776;2022-07-05T11:54:32;23.80;99.90
38428;DHT22;24211;49.980;19.776;2022-07-05T11:57:02;23.80;99.90
38428;DHT22;24211;49.980;19.776;2022-07-05T11:59:35;23.80;99.90
38428;DHT22;24211;49.980;19.776;2022-07-05T12:02:08;23.80;99.90
38428;DHT22;24211;49.980;19.776;2022-07-05T12:04:36;23.80;99.90
38428;DHT22;24211;49.980;19.776;2022-07-05T12:07:04;23.80;99.90
38428;DHT22;24211;49.980;19.776;2022-07-05T12:09:33;23.70;99.90
38428;DHT22;24211;49.980;19.776;2022-07-05T12:12:22;23.70;99.90
38428;DHT22;24211;49.980;19.776;2022-07-05T12:15:13;23.70;99.90
38428;DHT22;24211;49.980;19.776;2022-07-05T12:17:46;23.70;99.90
38428;DHT22;24211;49.980;19.776;2022-07-05T12:20:23;23.70;99.90
38428;DHT22;24211;49.980;19.776;2022-07-05T12:22:51;23.70;99.90
38428;DHT22;24211;49.980;19.776;2022-07-05T12:25:21;23.60;99.90
38428;DHT22;24211;49.980;19.776;2022-07-05T12:27:52;23.60;99.90
38428;DHT22;24211;49.980;19.776;2022-07-05T12:30:21;23.60;99.90
38428;DHT22;24211;49.980;19.776;2022-07-05T12:33:06;23.60;99.90
38428;DHT22;24211;49.980;19.776;2022-07-05T12:35:44;23.50;99.90
38428;DHT22;24211;49.980;19.776;2022-07-05T12:38:17;23.50;99.90
38428;DHT22;24211;49.980;19.776;2022-07-05T12:40:57;23.50;99.90
38428;DHT22;24211;49.980;19.776;2022-07-05T12:43:26;23.40;99.90
38428;DHT22;24211;49.980;19.776;2022-07-05T12:46:05;23.40;99.90
38428;DHT22;24211;49.980;19.776;2022-07-05T12:48:38;23.40;99.90
38428;DHT22;24211;49.980;19.776;2022-07-05T12:51:09;23.40;99.90
38428;DHT22;24211;49.980;19.776;2022-07-05T12:53:48;23.40;99.90
38428;DHT22;24211;49.980;19.776;2022-07-05T12:56:35;23.30;99.90
38428;DHT22;24211;49.980;19.776;2022-07-05T12:59:59;23.30;99.90
38428;DHT22;24211;49.980;19.776;2022-07-05T13:02:35;23.30;99.90
38428;DHT22;24211;49.980;19.776;2022-07-05T13:05:08;23.30;99.90
38428;DHT22;24211;49.980;19.776;2022-07-05T13:07:43;23.30;99.90
38428;DHT22;24211;49.980;19.776;2022-07-05T13:10:27;23.30;99.90
38428;DHT22;24211;49.980;19.776;2022-07-05T13:13:06;23.30;99.90
38428;DHT22;24211;49.980;19.776;2022-07-05T13:15:36;23.30;99.90
38428;DHT22;24211;49.980;19.776;2022-07-05T13:18:07;23.30;99.90
38428;DHT22;24211;49.980;19.776;2022-07-05T13:20:35;23.20;99.90
38428;DHT22;24211;49.980;19.776;2022-07-05T13:23:02;23.20;99.90
38428;DHT22;24211;49.980;19.776;2022-07-05T13:25:29;23.30;99.90
38428;DHT22;24211;49.980;19.776;2022-07-05T13:27:56;23.30;99.90
38428;DHT22;24211;49.980;19.776;2022-07-05T13:30:23;23.40;99.90
38428;DHT22;24211;49.980;19.776;2022-07-05T13:32:51;23.40;99.90
38428;DHT22;24211;49.980;19.776;2022-07-05T13:35:18;23.50;99.90
38428;DHT22;24211;49.980;19.776;2022-07-05T13:37:45;23.50;99.90
38428;DHT22;24211;49.980;19.776;2022-07-05T13:40:12;23.50;99.90
38428;DHT22;24211;49.980;19.776;2022-07-05T13:42:40;23.50;99.90
38428;DHT22;24211;49.980;19.776;2022-07-05T13:45:07;23.60;99.90
38428;DHT22;24211;49.980;19.776;2022-07-05T13:47:36;23.60;99.90
38428;DHT22;24211;49.980;19.776;2022-07-05T13:50:03;23.60;99.90
38428;DHT22;24211;49.980;19.776;2022-07-05T13:52:50;23.70;99.90
38428;DHT22;24211;49.980;19.776;2022-07-05T13:55:17;23.70;99.90
38428;DHT22;24211;49.980;19.776;2022-07-05T13:57:44;23.70;99.90
38428;DHT22;24211;49.980;19.776;2022-07-05T14:00:13;23.80;99.90
38428;DHT22;24211;49.980;19.776;2022-07-05T14:02:41;23.90;99.90
38428;DHT22;24211;49.980;19.776;2022-07-05T14:05:10;23.90;99.90
38428;DHT22;24211;49.980;19.776;2022-07-05T14:07:37;23.90;99.90
38428;DHT22;24211;49.980;19.776;2022-07-05T14:10:05;23.90;99.90
38428;DHT22;24211;49.980;19.776;2022-07-05T14:12:32;23.90;99.90
38428;DHT22;24211;49.980;19.776;2022-07-05T14:15:00;23.90;99.90
38428;DHT22;24211;49.980;19.776;2022-07-05T14:17:27;24.00;99.90
38428;DHT22;24211;49.980;19.776;2022-07-05T14:19:54;24.00;99.90
38428;DHT22;24211;49.980;19.776;2022-07-05T14:22:21;24.00;99.90
38428;DHT22;24211;49.980;19.776;2022-07-05T14:24:49;24.10;99.90
38428;DHT22;24211;49.980;19.776;2022-07-05T14:27:16;24.20;99.90
38428;DHT22;24211;49.980;19.776;2022-07-05T14:29:44;24.20;99.90
38428;DHT22;24211;49.980;19.776;2022-07-05T14:32:11;24.20;99.90
38428;DHT22;24211;49.980;19.776;2022-07-05T14:34:38;24.30;99.90
38428;DHT22;24211;49.980;19.776;2022-07-05T14:37:05;24.30;99.90
38428;DHT22;24211;49.980;19.776;2022-07-05T14:39:33;24.30;99.90
38428;DHT22;24211;49.980;19.776;2022-07-05T14:42:00;24.30;99.90
38428;DHT22;24211;49.980;19.776;2022-07-05T14:44:29;24.30;99.90
38428;DHT22;24211;49.980;19.776;2022-07-05T14:46:56;24.30;99.90
38428;DHT22;24211;49.980;19.776;2022-07-05T14:49:24;24.40;99.90
38428;DHT22;24211;49.980;19.776;2022-07-05T14:51:51;24.40;99.90
38428;DHT22;24211;49.980;19.776;2022-07-05T14:54:18;24.30;99.90
38428;DHT22;24211;49.980;19.776;2022-07-05T14:56:45;24.40;99.90
38428;DHT22;24211;49.980;19.776;2022-07-05T14:59:13;24.50;99.90
38428;DHT22;24211;49.980;19.776;2022-07-05T15:01:40;24.50;99.90
38428;DHT22;24211;49.980;19.776;2022-07-05T15:04:07;24.50;99.90
38428;DHT22;24211;49.980;19.776;2022-07-05T15:06:35;24.40;99.90
38428;DHT22;24211;49.980;19.776;2022-07-05T15:09:02;24.50;99.90
38428;DHT22;24211;49.980;19.776;2022-07-05T15:11:29;24.50;99.90
38428;DHT22;24211;49.980;19.776;2022-07-05T15:13:57;24.50;99.90
38428;DHT22;24211;49.980;19.776;2022-07-05T15:16:24;24.50;99.90
38428;DHT22;24211;49.980;19.776;2022-07-05T15:18:51;24.50;99.90
38428;DHT22;24211;49.980;19.776;2022-07-05T15:21:20;24.50;99.90
38428;DHT22;24211;49.980;19.776;2022-07-05T15:23:47;24.50;99.90
38428;DHT22;24211;49.980;19.776;2022-07-05T15:26:34;24.40;99.90
38428;DHT22;24211;49.980;19.776;2022-07-05T15:29:07;24.30;99.90
38428;DHT22;24211;49.980;19.776;2022-07-05T15:31:36;24.30;99.90
38428;DHT22;24211;49.980;19.776;2022-07-05T15:34:05;24.20;99.90
38428;DHT22;24211;49.980;19.776;2022-07-05T15:36:32;24.20;99.90
38428;DHT22;24211;49.980;19.776;2022-07-05T15:39:03;24.20;99.90
38428;DHT22;24211;49.980;19.776;2022-07-05T15:41:32;24.30;99.90
38428;DHT22;24211;49.980;19.776;2022-07-05T15:43:59;24.10;99.90
38428;DHT22;24211;49.980;19.776;2022-07-05T15:46:27;24.10;99.90
38428;DHT22;24211;49.980;19.776;2022-07-05T15:49:16;24.10;99.90
38428;DHT22;24211;49.980;19.776;2022-07-05T15:51:43;24.10;99.90
38428;DHT22;24211;49.980;19.776;2022-07-05T15:54:11;24.10;99.90